Time;durP1;ratioP1;P1;durP2;ratioP2;P2;SDS_P1;SDS_P2;PMS_P1;PMS_P2;Temp;Humidity;BMP_temperature;BMP_pressure;BME280_temperature;BME280_humidity;BME280_pressure;Samples;Min_cycle;Max_cycle;Signal;HPM_P1;HPM_P2
2021/11/06 00:02:03;;;;;;;7.38;4.47;;;13.10;87.20;;;;;;5053422;28;20060;-75
2021/11/06 00:04:28;;;;;;;7.55;4.68;;;13.10;87.20;;;;;;5053441;28;20040;-75
2021/11/06 00:06:54;;;;;;;8.80;4.70;;;13.10;87.30;;;;;;5053200;28;20102;-76
2021/11/06 00:09:19;;;;;;;8.40;4.93;;;13.10;87.20;;;;;;5053355;28;20159;-75
2021/11/06 00:11:45;;;;;;;7.55;4.93;;;13.10;87.20;;;;;;5053120;28;20025;-76
2021/11/06 00:14:11;;;;;;;10.02;5.05;;;13.10;87.20;;;;;;5053309;28;20032;-75
2021/11/06 00:16:36;;;;;;;8.05;5.00;;;13.10;87.20;;;;;;5053275;28;20079;-76
2021/11/06 00:19:02;;;;;;;7.40;4.82;;;13.10;87.20;;;;;;5053115;28;20032;-74
2021/11/06 00:21:27;;;;;;;7.20;4.68;;;13.10;87.20;;;;;;5054243;28;20033;-76
2021/11/06 00:23:53;;;;;;;7.22;4.80;;;13.10;87.20;;;;;;5054142;28;20552;-76
2021/11/06 00:26:18;;;;;;;7.40;4.68;;;13.10;87.20;;;;;;5052745;28;20040;-75
2021/11/06 00:28:44;;;;;;;7.50;4.72;;;13.10;87.10;;;;;;5052936;28;20071;-76
2021/11/06 00:31:09;;;;;;;8.07;4.85;;;13.10;87.20;;;;;;5052971;28;20036;-76
2021/11/06 00:33:35;;;;;;;6.45;4.30;;;13.10;87.20;;;;;;5054042;28;20025;-75
2021/11/06 00:36:00;;;;;;;7.05;4.63;;;13.10;87.20;;;;;;5052675;28;20486;-76
2021/11/06 00:38:26;;;;;;;7.28;4.70;;;13.10;87.20;;;;;;5054005;28;20371;-76
2021/11/06 00:40:51;;;;;;;7.07;4.72;;;13.10;87.20;;;;;;5052680;28;20028;-76
2021/11/06 00:43:17;;;;;;;9.85;5.00;;;13.10;87.20;;;;;;5052577;28;20013;-75
2021/11/06 00:45:43;;;;;;;9.10;4.78;;;13.10;87.30;;;;;;5052494;28;20028;-75
2021/11/06 00:48:08;;;;;;;7.78;4.75;;;13.10;87.20;;;;;;5053822;28;20021;-76
2021/11/06 00:50:34;;;;;;;8.00;4.82;;;13.10;87.20;;;;;;5053759;28;20486;-76
2021/11/06 00:53:00;;;;;;;8.50;5.05;;;13.10;88.40;;;;;;5053704;28;20029;-75
2021/11/06 00:55:25;;;;;;;8.00;4.50;;;13.10;87.50;;;;;;5052191;28;20346;-75
2021/11/06 00:57:51;;;;;;;7.05;4.30;;;13.10;89.30;;;;;;5053533;28;20502;-76
2021/11/06 01:00:19;;;;;;;7.53;4.43;;;13.10;88.70;;;;;;5052349;28;20025;-77
2021/11/06 01:02:47;;;;;;;6.70;4.38;;;13.10;88.50;;;;;;5052235;28;20028;-77
2021/11/06 01:05:13;;;;;;;8.18;4.80;;;13.20;87.50;;;;;;5052777;28;20100;-76
2021/11/06 01:07:39;;;;;;;6.45;4.25;;;13.20;87.30;;;;;;5053313;28;20095;-77
2021/11/06 01:10:06;;;;;;;8.90;4.60;;;13.20;87.30;;;;;;5052042;28;20052;-77
2021/11/06 01:12:32;;;;;;;8.45;4.82;;;13.20;87.50;;;;;;5052161;28;20028;-76
2021/11/06 01:14:57;;;;;;;9.32;4.50;;;13.20;87.30;;;;;;5051980;28;20395;-75
2021/11/06 01:17:23;;;;;;;8.32;4.45;;;13.20;87.20;;;;;;5051849;28;20025;-75
2021/11/06 01:19:49;;;;;;;7.13;4.70;;;13.20;87.60;;;;;;5053532;28;20017;-75
2021/11/06 01:22:15;;;;;;;8.00;4.50;;;13.20;87.20;;;;;;5053090;28;20060;-75
2021/11/06 01:24:41;;;;;;;7.68;4.43;;;13.20;87.30;;;;;;5051849;28;20062;-77
2021/11/06 01:27:10;;;;;;;10.07;4.90;;;13.20;87.10;;;;;;5051440;28;20029;-76
2021/11/06 01:29:36;;;;;;;11.05;4.95;;;13.20;87.00;;;;;;5051798;28;20017;-77
2021/11/06 01:32:02;;;;;;;8.90;5.05;;;13.20;87.30;;;;;;5053061;28;20156;-76
2021/11/06 01:34:27;;;;;;;10.55;4.45;;;13.20;87.30;;;;;;5051583;28;20490;-77
2021/11/06 01:36:53;;;;;;;10.20;4.85;;;13.20;87.00;;;;;;5052681;28;20035;-76
2021/11/06 01:39:18;;;;;;;9.68;4.72;;;13.20;86.90;;;;;;5051710;28;20031;-77
2021/11/06 01:41:44;;;;;;;10.77;5.18;;;13.20;87.00;;;;;;5049815;28;20387;-76
2021/11/06 01:44:10;;;;;;;8.35;4.82;;;13.20;86.90;;;;;;5051464;28;20501;-76
2021/11/06 01:46:35;;;;;;;7.30;4.82;;;13.10;86.90;;;;;;5067838;28;20390;-76
2021/11/06 01:49:01;;;;;;;8.55;4.88;;;13.10;86.90;;;;;;5068104;28;20021;-76
2021/11/06 01:51:27;;;;;;;7.88;4.70;;;13.10;87.00;;;;;;5051480;28;20040;-76
2021/11/06 01:53:53;;;;;;;8.48;4.88;;;13.10;87.10;;;;;;5052582;28;20079;-75
2021/11/06 01:56:19;;;;;;;9.13;5.10;;;13.10;87.10;;;;;;5052439;28;20053;-77
2021/11/06 01:58:45;;;;;;;11.30;4.68;;;13.10;87.10;;;;;;5068085;28;20395;-76
2021/11/06 02:01:11;;;;;;;8.25;4.82;;;13.10;87.20;;;;;;5067888;28;20021;-76
2021/11/06 02:03:37;;;;;;;8.90;4.95;;;13.00;87.00;;;;;;5067967;28;20116;-75
2021/11/06 02:06:02;;;;;;;7.93;4.65;;;13.10;87.10;;;;;;5052287;28;20021;-75
2021/11/06 02:08:28;;;;;;;9.25;4.93;;;13.10;87.10;;;;;;5051129;28;20386;-77
2021/11/06 02:10:54;;;;;;;8.10;5.20;;;13.00;87.00;;;;;;5051197;28;20025;-75
2021/11/06 02:13:20;;;;;;;8.73;5.10;;;13.00;87.00;;;;;;5052381;28;20025;-75
2021/11/06 02:15:46;;;;;;;8.27;4.88;;;13.00;87.00;;;;;;5052226;28;20075;-76
2021/11/06 02:18:12;;;;;;;8.85;5.13;;;13.00;86.90;;;;;;5051436;28;20052;-76
2021/11/06 02:21:02;;;;;;;9.85;5.18;;;13.00;86.90;;;;;;5052291;28;20029;-75
2021/11/06 02:23:31;;;;;;;8.18;5.30;;;13.10;86.90;;;;;;5050323;28;20037;-75
2021/11/06 02:25:57;;;;;;;9.68;5.30;;;13.00;86.80;;;;;;5050954;28;20032;-77
2021/11/06 02:28:23;;;;;;;9.15;5.22;;;13.00;86.70;;;;;;5052425;28;20406;-75
2021/11/06 02:30:48;;;;;;;7.60;5.05;;;13.00;86.70;;;;;;5052221;28;20025;-75
2021/11/06 02:33:14;;;;;;;10.00;5.20;;;13.00;86.70;;;;;;5050844;28;20079;-75
2021/11/06 02:35:41;;;;;;;13.10;5.85;;;13.00;86.70;;;;;;5050753;28;20033;-76
2021/11/06 02:38:07;;;;;;;11.50;5.15;;;13.10;86.70;;;;;;5052073;28;20029;-75
2021/11/06 02:40:33;;;;;;;8.50;5.00;;;13.00;86.50;;;;;;5052136;28;20082;-76
2021/11/06 02:43:00;;;;;;;9.80;5.30;;;13.00;86.40;;;;;;5050531;28;20485;-76
2021/11/06 02:45:26;;;;;;;9.45;5.50;;;13.00;86.40;;;;;;5051865;28;20117;-76
2021/11/06 02:47:51;;;;;;;7.85;5.00;;;13.10;86.40;;;;;;5052140;28;20100;-75
2021/11/06 02:50:17;;;;;;;10.68;6.20;;;13.10;86.30;;;;;;5052094;28;20021;-76
2021/11/06 02:52:42;;;;;;;10.23;5.93;;;13.00;86.20;;;;;;5051910;28;20059;-76
2021/11/06 02:55:09;;;;;;;9.73;5.78;;;13.00;86.30;;;;;;5051890;28;20044;-74
2021/11/06 02:57:35;;;;;;;8.30;5.82;;;13.00;86.10;;;;;;5052018;28;20021;-76
2021/11/06 03:00:00;;;;;;;9.77;6.13;;;13.00;86.00;;;;;;5052019;28;20414;-75
2021/11/06 03:02:26;;;;;;;8.27;5.68;;;13.00;86.00;;;;;;5050662;28;20398;-75
2021/11/06 03:04:52;;;;;;;9.75;5.97;;;13.00;85.90;;;;;;5067372;28;20448;-76
2021/11/06 03:07:18;;;;;;;9.23;5.75;;;13.00;85.90;;;;;;5050415;28;20497;-75
2021/11/06 03:09:43;;;;;;;8.52;5.72;;;13.00;85.80;;;;;;5048683;28;20052;-75
2021/11/06 03:12:13;;;;;;;9.75;6.07;;;13.00;85.80;;;;;;5051882;28;20029;-75
2021/11/06 03:14:40;;;;;;;9.30;5.90;;;13.00;85.80;;;;;;5067119;28;20028;-76
2021/11/06 03:17:06;;;;;;;10.48;5.68;;;13.00;85.70;;;;;;5067096;28;20029;-76
2021/11/06 03:19:31;;;;;;;8.05;5.72;;;13.00;85.70;;;;;;5067341;28;20031;-75
2021/11/06 03:21:57;;;;;;;7.93;5.50;;;13.00;85.70;;;;;;5050500;28;20092;-75
2021/11/06 03:24:23;;;;;;;10.15;5.93;;;13.00;85.60;;;;;;5083539;22;20116;-77
2021/11/06 03:26:48;;;;;;;10.82;6.00;;;13.00;85.60;;;;;;5071337;28;20096;-76
2021/11/06 03:29:14;;;;;;;10.40;6.05;;;13.00;85.60;;;;;;5072013;28;20462;-76
2021/11/06 03:31:39;;;;;;;8.77;5.50;;;13.00;85.60;;;;;;5074151;28;20032;-77
2021/11/06 03:34:05;;;;;;;10.15;5.97;;;13.00;85.50;;;;;;5074039;28;20025;-77
2021/11/06 03:36:30;;;;;;;9.05;5.43;;;13.00;85.40;;;;;;5073760;28;20020;-77
2021/11/06 03:38:56;;;;;;;8.30;6.00;;;13.00;85.40;;;;;;5074083;28;20056;-77
2021/11/06 03:41:22;;;;;;;8.05;6.00;;;13.00;85.30;;;;;;5075313;28;20029;-77
2021/11/06 03:43:47;;;;;;;9.15;5.72;;;13.00;85.30;;;;;;5073723;28;20023;-77
2021/11/06 03:46:13;;;;;;;8.85;6.20;;;13.00;85.30;;;;;;5074732;28;20021;-77
2021/11/06 03:48:39;;;;;;;10.63;6.75;;;13.00;85.30;;;;;;5073711;28;20127;-77
2021/11/06 03:51:04;;;;;;;11.43;6.72;;;13.00;85.30;;;;;;5073761;28;20031;-77
2021/11/06 03:53:30;;;;;;;8.27;5.97;;;13.00;85.30;;;;;;5073543;28;20032;-77
2021/11/06 03:55:56;;;;;;;9.95;6.20;;;13.00;85.30;;;;;;5073459;28;20033;-77
2021/11/06 03:58:22;;;;;;;8.30;5.85;;;13.00;85.30;;;;;;5074742;28;20021;-77
2021/11/06 04:00:48;;;;;;;10.07;6.47;;;13.00;85.30;;;;;;5073426;28;20505;-76
2021/11/06 04:03:14;;;;;;;11.30;6.43;;;13.00;85.30;;;;;;5073402;28;20024;-77
2021/11/06 04:05:39;;;;;;;10.13;6.10;;;13.00;85.60;;;;;;5073048;28;20474;-77
2021/11/06 04:08:05;;;;;;;9.75;6.03;;;13.10;86.00;;;;;;5073346;28;20027;-77
2021/11/06 04:10:30;;;;;;;9.65;6.25;;;13.10;87.10;;;;;;5073320;28;20397;-76
2021/11/06 04:12:56;;;;;;;9.60;5.95;;;13.10;86.50;;;;;;5074454;28;20025;-76
2021/11/06 04:15:21;;;;;;;8.55;6.38;;;13.10;86.20;;;;;;5073015;28;20021;-76
2021/11/06 04:17:47;;;;;;;9.48;6.10;;;13.10;85.90;;;;;;5074459;28;20104;-76
2021/11/06 04:20:13;;;;;;;9.60;5.93;;;13.10;85.80;;;;;;5072995;28;20025;-77
2021/11/06 04:22:39;;;;;;;9.75;6.25;;;13.10;85.70;;;;;;5073102;28;20024;-76
2021/11/06 04:25:05;;;;;;;9.85;6.03;;;13.10;85.60;;;;;;5074122;28;20165;-75
2021/11/06 04:27:31;;;;;;;8.32;6.38;;;13.10;85.60;;;;;;5072954;28;20021;-76
2021/11/06 04:29:57;;;;;;;8.13;6.15;;;13.10;85.50;;;;;;5074156;28;20248;-77
2021/11/06 04:32:22;;;;;;;9.10;6.20;;;13.10;85.50;;;;;;5072819;28;20537;-77
2021/11/06 04:34:48;;;;;;;9.60;6.72;;;13.10;85.90;;;;;;5072861;28;20021;-77
2021/11/06 04:37:15;;;;;;;8.63;6.43;;;13.10;85.60;;;;;;5073726;28;20170;-77
2021/11/06 04:39:40;;;;;;;9.93;6.72;;;13.10;85.40;;;;;;5072617;28;20056;-77
2021/11/06 04:42:06;;;;;;;8.95;6.38;;;13.10;85.40;;;;;;5071803;28;20121;-77
2021/11/06 04:44:32;;;;;;;9.68;6.55;;;13.10;85.50;;;;;;5072778;28;20506;-77
2021/11/06 04:46:58;;;;;;;9.57;6.47;;;13.10;85.30;;;;;;5072432;28;20056;-78
2021/11/06 04:49:23;;;;;;;9.73;6.90;;;13.10;85.30;;;;;;5072641;28;20017;-78
2021/11/06 04:51:49;;;;;;;9.27;6.60;;;13.10;85.30;;;;;;5072422;28;20389;-77
2021/11/06 04:54:15;;;;;;;9.65;7.18;;;13.10;85.30;;;;;;5072594;28;20028;-78
2021/11/06 04:56:41;;;;;;;9.65;6.88;;;13.10;85.40;;;;;;5072049;28;20028;-76
2021/11/06 04:59:06;;;;;;;9.15;7.35;;;13.00;85.40;;;;;;5072328;28;20035;-77
2021/11/06 05:01:32;;;;;;;10.40;7.22;;;13.00;85.40;;;;;;5073395;28;20389;-77
2021/11/06 05:03:57;;;;;;;9.10;7.25;;;13.00;85.40;;;;;;5072057;28;20025;-77
2021/11/06 05:06:23;;;;;;;10.80;7.25;;;13.00;85.50;;;;;;5071931;28;20394;-76
2021/11/06 05:08:49;;;;;;;11.00;7.68;;;13.00;85.60;;;;;;5073441;28;20025;-77
2021/11/06 05:11:14;;;;;;;10.00;7.10;;;13.00;85.70;;;;;;5071096;28;20024;-76
2021/11/06 05:13:40;;;;;;;10.05;7.10;;;13.00;85.70;;;;;;5071830;28;20032;-77
2021/11/06 05:16:05;;;;;;;10.70;7.57;;;13.00;85.80;;;;;;5071855;28;20028;-77
2021/11/06 05:18:31;;;;;;;11.80;7.65;;;13.00;85.80;;;;;;5071943;28;20540;-76
2021/11/06 05:20:56;;;;;;;9.52;6.82;;;13.00;85.80;;;;;;5072009;28;20029;-77
2021/11/06 05:23:22;;;;;;;10.65;7.60;;;13.00;85.80;;;;;;5073240;28;20039;-76
2021/11/06 05:25:48;;;;;;;10.75;7.60;;;13.00;85.80;;;;;;5071566;28;20037;-77
2021/11/06 05:28:14;;;;;;;10.75;7.82;;;13.00;85.70;;;;;;5067687;28;20386;-77
2021/11/06 05:30:42;;;;;;;12.45;7.97;;;13.00;85.70;;;;;;5071770;28;20032;-77
2021/11/06 05:33:08;;;;;;;10.77;7.28;;;13.00;85.60;;;;;;5072824;28;20020;-77
2021/11/06 05:35:34;;;;;;;10.98;7.72;;;13.00;85.60;;;;;;5072668;28;20112;-77
2021/11/06 05:37:59;;;;;;;10.77;7.80;;;13.00;85.50;;;;;;5071664;28;20068;-77
2021/11/06 05:40:25;;;;;;;10.90;7.80;;;13.00;85.50;;;;;;5071512;28;20055;-78
2021/11/06 05:42:51;;;;;;;11.55;7.85;;;13.00;85.50;;;;;;5071376;28;20032;-76
2021/11/06 05:45:17;;;;;;;12.93;8.25;;;13.00;85.50;;;;;;5071249;28;20024;-77
2021/11/06 05:47:43;;;;;;;11.23;7.68;;;13.00;85.40;;;;;;5072803;28;20095;-77
2021/11/06 05:50:11;;;;;;;13.05;7.97;;;13.00;85.40;;;;;;5071496;28;20109;-77
2021/11/06 05:52:37;;;;;;;13.63;8.43;;;13.00;85.40;;;;;;5072500;28;20055;-77
2021/11/06 05:55:05;;;;;;;12.10;8.00;;;13.00;85.30;;;;;;5072641;28;20029;-77
2021/11/06 05:57:33;;;;;;;13.48;8.32;;;13.00;85.30;;;;;;5071357;28;20028;-77
2021/11/06 05:59:58;;;;;;;12.38;7.97;;;13.00;85.30;;;;;;5072736;28;20086;-78
2021/11/06 06:02:24;;;;;;;11.73;8.18;;;13.00;85.30;;;;;;5072456;28;20028;-77
2021/11/06 06:04:50;;;;;;;11.75;8.40;;;13.00;85.30;;;;;;5071289;28;20107;-77
2021/11/06 06:07:16;;;;;;;12.27;8.82;;;13.00;85.20;;;;;;5072314;28;20048;-77
2021/11/06 06:09:41;;;;;;;11.50;8.15;;;13.00;85.20;;;;;;5071165;28;20111;-78
2021/11/06 06:12:07;;;;;;;12.23;8.57;;;13.00;85.10;;;;;;5071266;28;20020;-77
2021/11/06 06:14:33;;;;;;;12.38;8.80;;;13.00;85.10;;;;;;5071249;28;20032;-77
2021/11/06 06:16:58;;;;;;;13.23;8.93;;;13.00;85.10;;;;;;5070972;28;20032;-77
2021/11/06 06:19:24;;;;;;;12.85;9.07;;;13.00;85.00;;;;;;5071249;28;20021;-77
2021/11/06 06:21:49;;;;;;;13.90;9.23;;;13.00;85.00;;;;;;5070914;28;20032;-78
2021/11/06 06:24:15;;;;;;;13.60;8.75;;;13.00;85.00;;;;;;5071164;28;20032;-80
2021/11/06 06:26:40;;;;;;;12.63;8.85;;;13.00;85.00;;;;;;5070973;28;20044;-78
2021/11/06 06:29:06;;;;;;;14.40;9.23;;;13.00;85.00;;;;;;5071224;28;20025;-79
2021/11/06 06:31:32;;;;;;;13.07;9.38;;;13.00;85.00;;;;;;5069882;28;20029;-77
2021/11/06 06:33:57;;;;;;;12.77;8.60;;;13.00;84.90;;;;;;5069852;28;20025;-78
2021/11/06 06:36:23;;;;;;;13.40;9.02;;;13.00;85.00;;;;;;5069918;28;20031;-80
2021/11/06 06:38:48;;;;;;;12.32;8.55;;;13.00;85.00;;;;;;5070580;28;20117;-77
2021/11/06 06:41:15;;;;;;;13.18;8.77;;;13.00;85.00;;;;;;5073210;28;20039;-78
2021/11/06 06:43:41;;;;;;;12.57;8.93;;;13.00;84.90;;;;;;5065403;28;20029;-78
2021/11/06 06:46:06;;;;;;;13.70;8.95;;;13.00;85.00;;;;;;5037439;28;20259;-77
2021/11/06 06:48:32;;;;;;;14.35;9.43;;;13.00;85.00;;;;;;4978759;28;20052;-78
2021/11/06 06:50:57;;;;;;;12.07;8.93;;;12.90;84.80;;;;;;5050177;28;20083;-78
2021/11/06 06:53:23;;;;;;;13.48;9.05;;;13.00;84.90;;;;;;5052478;28;20029;-77
2021/11/06 07:06:10;;;;;;;12.88;8.82;;;12.90;84.60;;;;;;5332188;22;20059;-74
2021/11/06 07:08:35;;;;;;;14.23;9.68;;;13.00;84.70;;;;;;5068808;28;20028;-76
2021/11/06 07:11:01;;;;;;;13.60;9.70;;;12.90;84.60;;;;;;5064957;28;20052;-72
2021/11/06 07:13:27;;;;;;;14.48;9.90;;;12.80;84.50;;;;;;5052141;28;20848;-75
2021/11/06 07:15:53;;;;;;;14.50;9.23;;;12.90;84.60;;;;;;5063452;28;20043;-73
2021/11/06 07:18:19;;;;;;;12.93;9.25;;;12.90;84.50;;;;;;5069528;28;20021;-74
2021/11/06 07:20:44;;;;;;;13.15;8.45;;;13.00;84.60;;;;;;5069542;28;20024;-76
2021/11/06 07:23:10;;;;;;;13.27;8.70;;;13.00;84.70;;;;;;5069376;28;20482;-75
2021/11/06 07:25:36;;;;;;;11.95;8.65;;;12.90;84.50;;;;;;5069282;28;20028;-76
2021/11/06 07:28:02;;;;;;;13.05;8.70;;;13.00;85.10;;;;;;5069828;28;20025;-74
2021/11/06 07:30:27;;;;;;;13.48;8.82;;;13.00;84.60;;;;;;5069442;28;20025;-75
2021/11/06 07:32:53;;;;;;;13.13;9.00;;;13.00;84.70;;;;;;5030360;28;20020;-76
2021/11/06 07:35:19;;;;;;;15.18;9.05;;;13.00;84.60;;;;;;4968461;28;20668;-78
2021/11/06 07:37:45;;;;;;;14.18;8.35;;;13.00;84.50;;;;;;5068822;28;20028;-79
2021/11/06 07:40:12;;;;;;;14.10;8.70;;;13.00;84.40;;;;;;5069236;28;20023;-76
2021/11/06 07:42:41;;;;;;;13.38;8.52;;;13.00;84.50;;;;;;5070049;28;20024;-74
2021/11/06 07:45:09;;;;;;;15.80;8.88;;;13.00;84.50;;;;;;5067614;28;20805;-73
2021/11/06 07:47:35;;;;;;;13.50;8.65;;;13.00;84.30;;;;;;5068699;28;20059;-74
2021/11/06 07:50:02;;;;;;;13.60;8.43;;;13.00;84.60;;;;;;5067988;28;20047;-75
2021/11/06 07:52:28;;;;;;;19.33;8.40;;;13.00;83.90;;;;;;5068445;28;20127;-73
2021/11/06 07:54:54;;;;;;;20.05;9.07;;;13.00;83.70;;;;;;5049705;28;20044;-74
2021/11/06 07:57:20;;;;;;;16.15;8.43;;;13.00;83.60;;;;;;5050928;28;20040;-75
2021/11/06 07:59:46;;;;;;;20.77;8.48;;;13.00;83.60;;;;;;5051101;28;20489;-75
2021/11/06 08:02:11;;;;;;;19.25;8.57;;;13.00;83.60;;;;;;5044971;28;20075;-73
2021/11/06 08:04:37;;;;;;;17.27;8.88;;;13.00;83.70;;;;;;5040945;28;20055;-75
2021/11/06 08:07:03;;;;;;;18.70;9.32;;;13.00;83.80;;;;;;5039720;28;20128;-73
2021/11/06 08:09:29;;;;;;;17.98;8.45;;;13.00;83.90;;;;;;5041463;28;20021;-76
2021/11/06 08:11:54;;;;;;;18.67;8.60;;;12.90;83.90;;;;;;5056948;28;20865;-75
2021/11/06 08:14:20;;;;;;;16.55;8.55;;;12.90;84.00;;;;;;5040596;28;20028;-75
2021/11/06 08:16:45;;;;;;;17.55;8.20;;;12.90;84.00;;;;;;5039531;28;20485;-76
2021/11/06 08:19:11;;;;;;;13.77;7.97;;;12.90;84.00;;;;;;5059354;28;20831;-73
2021/11/06 08:21:37;;;;;;;13.05;8.20;;;12.90;84.00;;;;;;5059506;28;20099;-75
2021/11/06 08:24:03;;;;;;;14.52;8.05;;;12.90;84.00;;;;;;5056475;28;20052;-78
2021/11/06 08:26:28;;;;;;;15.43;8.57;;;12.90;84.00;;;;;;5063002;28;20032;-74
2021/11/06 08:28:55;;;;;;;17.75;7.97;;;12.90;84.20;;;;;;5050790;28;20355;-75
2021/11/06 08:31:21;;;;;;;20.35;8.88;;;12.90;84.00;;;;;;5035593;28;20074;-74
2021/11/06 08:33:48;;;;;;;12.52;8.13;;;12.90;84.00;;;;;;5048129;28;20025;-75
2021/11/06 08:36:14;;;;;;;11.75;7.15;;;12.90;84.00;;;;;;5044619;28;20044;-73
2021/11/06 08:38:40;;;;;;;12.95;7.68;;;12.90;84.00;;;;;;5037915;28;20449;-73
2021/11/06 08:41:06;;;;;;;13.43;8.00;;;12.90;83.90;;;;;;5031343;28;20061;-75
2021/11/06 08:43:33;;;;;;;14.05;7.75;;;12.90;83.90;;;;;;5030987;28;20241;-75
2021/11/06 08:46:00;;;;;;;10.82;6.95;;;12.90;83.90;;;;;;5031060;28;20037;-75
2021/11/06 08:48:26;;;;;;;15.32;7.68;;;12.90;83.90;;;;;;5038464;28;20021;-74
2021/11/06 08:50:52;;;;;;;11.07;7.15;;;12.90;83.90;;;;;;5050768;28;20033;-74
2021/11/06 08:53:18;;;;;;;11.90;6.85;;;12.90;83.90;;;;;;5050456;28;20032;-75
2021/11/06 08:55:44;;;;;;;11.02;6.85;;;12.90;83.90;;;;;;5051308;28;20115;-74
2021/11/06 08:58:10;;;;;;;10.25;7.03;;;12.90;83.90;;;;;;5051260;28;20031;-74
2021/11/06 09:00:41;;;;;;;13.23;6.85;;;12.90;83.90;;;;;;5051198;28;20029;-74
2021/11/06 09:03:16;;;;;;;12.77;7.20;;;12.90;83.90;;;;;;5050800;28;20071;-74
2021/11/06 09:05:43;;;;;;;14.15;7.18;;;12.90;84.00;;;;;;5049636;28;20036;-73
2021/11/06 09:08:08;;;;;;;11.50;6.60;;;12.90;83.90;;;;;;5050211;28;20052;-74
2021/11/06 09:10:34;;;;;;;11.48;7.07;;;12.90;83.90;;;;;;5049934;28;20052;-73
2021/11/06 09:13:00;;;;;;;10.68;6.43;;;12.90;83.90;;;;;;5050566;28;20029;-75
2021/11/06 09:15:26;;;;;;;13.68;6.75;;;12.90;83.80;;;;;;5068092;28;20021;-73
2021/11/06 09:17:52;;;;;;;12.10;6.88;;;12.90;83.80;;;;;;5068831;28;20027;-75
2021/11/06 09:20:19;;;;;;;12.32;6.60;;;12.90;83.80;;;;;;5068478;28;20020;-73
2021/11/06 09:22:45;;;;;;;10.55;6.95;;;12.90;84.30;;;;;;5050630;28;20063;-72
2021/11/06 09:25:11;;;;;;;10.52;6.68;;;12.90;83.80;;;;;;5050187;28;20558;-75
2021/11/06 09:27:37;;;;;;;12.02;7.20;;;12.90;83.80;;;;;;5049993;28;20066;-75
2021/11/06 09:30:05;;;;;;;11.32;7.13;;;12.90;83.80;;;;;;5050215;28;20093;-73
2021/11/06 09:32:31;;;;;;;10.50;6.68;;;12.90;83.80;;;;;;5050638;28;20039;-74
2021/11/06 09:34:56;;;;;;;11.70;6.90;;;12.90;83.80;;;;;;5068301;28;20021;-74
2021/11/06 09:37:22;;;;;;;9.55;6.35;;;12.80;83.70;;;;;;5050203;28;20024;-74
2021/11/06 09:39:47;;;;;;;10.48;6.88;;;12.90;83.70;;;;;;5050589;28;20043;-75
2021/11/06 09:42:14;;;;;;;10.93;6.68;;;12.90;83.20;;;;;;5068299;28;20031;-75
2021/11/06 09:44:40;;;;;;;10.25;6.38;;;12.90;83.30;;;;;;5050664;28;20124;-75
2021/11/06 09:47:10;;;;;;;10.15;6.50;;;12.90;83.40;;;;;;5068577;28;20021;-78
2021/11/06 09:49:37;;;;;;;11.88;6.90;;;12.90;83.40;;;;;;5068840;28;20016;-74
2021/11/06 09:52:03;;;;;;;10.93;6.63;;;12.90;83.50;;;;;;5068385;28;20028;-76
2021/11/06 09:54:29;;;;;;;10.63;6.47;;;12.90;83.50;;;;;;5064819;28;20676;-75
2021/11/06 09:56:55;;;;;;;11.15;6.18;;;12.90;83.40;;;;;;5046941;28;20029;-74
2021/11/06 09:59:21;;;;;;;11.93;6.13;;;12.90;83.80;;;;;;5046908;28;20029;-76
2021/11/06 10:01:46;;;;;;;12.45;6.55;;;12.90;83.60;;;;;;5061319;28;20028;-76
2021/11/06 10:04:12;;;;;;;12.45;6.47;;;12.90;83.50;;;;;;5068248;28;20099;-75
2021/11/06 10:06:45;;;;;;;14.38;6.60;;;12.90;83.60;;;;;;5067880;28;20379;-75
2021/11/06 10:09:12;;;;;;;13.35;6.68;;;12.90;83.50;;;;;;5050111;28;20076;-76
2021/11/06 10:11:42;;;;;;;9.98;6.10;;;12.90;83.50;;;;;;5050388;28;20357;-75
2021/11/06 10:14:10;;;;;;;15.27;6.53;;;12.90;83.90;;;;;;5068358;28;20106;-76
2021/11/06 10:17:00;;;;;;;19.35;6.82;;;12.90;83.40;;;;;;5050438;28;20025;-75
2021/11/06 10:19:32;;;;;;;12.55;7.03;;;12.90;83.80;;;;;;5050834;28;20112;-76
2021/11/06 10:22:14;;;;;;;11.55;5.90;;;12.90;83.70;;;;;;5068235;28;20037;-75
2021/11/06 10:24:54;;;;;;;12.27;5.82;;;12.90;83.80;;;;;;5050145;28;20031;-75
2021/11/06 10:27:30;;;;;;;10.75;5.78;;;12.90;83.70;;;;;;5049510;28;20054;-75
2021/11/06 10:30:16;;;;;;;9.57;5.97;;;12.90;83.70;;;;;;5068131;28;20429;-75
2021/11/06 10:32:44;;;;;;;11.57;5.70;;;12.90;83.50;;;;;;5068158;28;20031;-77
2021/11/06 10:35:14;;;;;;;10.68;5.82;;;13.00;84.10;;;;;;5068232;28;20036;-75
2021/11/06 10:37:40;;;;;;;13.68;5.80;;;13.00;83.80;;;;;;5049419;28;20036;-76
2021/11/06 10:40:09;;;;;;;12.07;6.03;;;13.00;83.70;;;;;;5050884;28;20033;-77
2021/11/06 10:42:37;;;;;;;13.02;6.20;;;13.00;83.50;;;;;;5052169;28;20139;-75
2021/11/06 10:45:17;;;;;;;11.77;6.03;;;13.00;83.30;;;;;;5050416;28;20036;-75
2021/11/06 10:48:00;;;;;;;13.02;5.95;;;13.00;83.20;;;;;;5050343;28;20028;-75
2021/11/06 10:50:58;;;;;;;10.00;5.90;;;13.10;83.00;;;;;;5050930;28;20205;-73
2021/11/06 10:53:30;;;;;;;10.23;6.15;;;13.00;82.90;;;;;;5039730;28;20064;-79
2021/11/06 10:55:57;;;;;;;10.27;5.75;;;13.00;83.10;;;;;;5051322;28;20024;-75
2021/11/06 10:58:28;;;;;;;12.57;5.70;;;13.00;83.20;;;;;;5050530;28;20028;-74
2021/11/06 11:00:57;;;;;;;11.23;6.13;;;13.00;83.30;;;;;;5051191;28;20035;-75
2021/11/06 11:03:30;;;;;;;9.35;5.57;;;13.00;82.60;;;;;;5050964;28;20028;-74
2021/11/06 11:05:58;;;;;;;9.88;5.63;;;13.00;82.70;;;;;;5050582;28;20036;-75
2021/11/06 11:08:25;;;;;;;11.68;6.05;;;13.00;82.60;;;;;;5052404;28;20021;-76
2021/11/06 11:10:51;;;;;;;9.57;5.80;;;13.00;82.70;;;;;;5051160;28;20036;-76
2021/11/06 11:13:20;;;;;;;10.30;5.45;;;13.00;82.60;;;;;;5051965;28;20031;-75
2021/11/06 11:15:51;;;;;;;13.63;5.95;;;13.00;82.60;;;;;;5053086;28;20028;-76
2021/11/06 11:18:35;;;;;;;38.15;9.02;;;12.90;81.40;;;;;;5053444;28;20115;-75
2021/11/06 11:21:14;;;;;;;37.20;8.43;;;12.90;81.60;;;;;;5053378;28;20451;-75
2021/11/06 11:23:43;;;;;;;37.67;8.95;;;12.90;81.80;;;;;;5071588;28;20024;-78
2021/11/06 11:26:09;;;;;;;38.20;8.98;;;12.80;81.90;;;;;;5071445;28;20547;-77
2021/11/06 11:28:35;;;;;;;36.03;9.00;;;12.90;82.10;;;;;;5053464;28;20111;-76
2021/11/06 11:31:00;;;;;;;42.45;8.30;;;12.90;82.20;;;;;;5053488;28;20181;-78
2021/11/06 11:33:26;;;;;;;34.20;7.35;;;12.90;82.40;;;;;;5054325;28;20065;-75
2021/11/06 11:35:53;;;;;;;24.75;7.53;;;12.90;82.50;;;;;;5073412;28;20042;-76
2021/11/06 11:38:22;;;;;;;21.17;7.38;;;12.90;82.50;;;;;;5071503;28;20119;-76
2021/11/06 11:41:08;;;;;;;22.90;6.88;;;12.80;80.50;;;;;;5053116;28;20119;-76
2021/11/06 11:44:21;;;;;;;18.80;6.55;;;12.80;80.80;;;;;;5022184;28;20442;-75
2021/11/06 11:46:53;;;;;;;20.25;6.50;;;12.80;81.20;;;;;;4999120;28;20038;-76
2021/11/06 11:49:20;;;;;;;19.40;6.32;;;12.80;81.60;;;;;;5052695;28;20033;-77
2021/11/06 11:51:46;;;;;;;17.63;6.65;;;12.80;82.00;;;;;;5052582;28;20067;-74
2021/11/06 11:54:15;;;;;;;17.27;7.28;;;12.90;82.50;;;;;;5052482;28;20494;-75
2021/11/06 11:56:41;;;;;;;12.25;6.03;;;12.90;82.50;;;;;;5051962;28;20029;-73
2021/11/06 11:59:07;;;;;;;18.70;6.03;;;12.90;82.70;;;;;;5052520;28;20035;-73
2021/11/06 12:01:34;;;;;;;14.15;6.47;;;12.90;82.80;;;;;;5052343;28;20025;-75
2021/11/06 12:04:17;;;;;;;14.35;6.22;;;12.90;82.90;;;;;;5052902;28;20024;-76
2021/11/06 12:06:44;;;;;;;13.20;6.30;;;12.90;82.90;;;;;;5070636;28;20025;-75
2021/11/06 12:09:16;;;;;;;11.60;6.25;;;12.90;82.80;;;;;;5052579;28;20085;-75
2021/11/06 12:11:52;;;;;;;11.70;6.18;;;12.90;82.80;;;;;;5051836;28;20028;-75
2021/11/06 12:14:24;;;;;;;15.70;6.32;;;12.90;82.30;;;;;;5052721;28;20032;-75
2021/11/06 12:16:57;;;;;;;16.10;6.22;;;12.80;80.90;;;;;;5052136;28;20040;-74
2021/11/06 12:19:43;;;;;;;18.60;6.20;;;12.80;80.10;;;;;;5070133;28;20088;-75
2021/11/06 12:22:24;;;;;;;12.57;6.15;;;12.80;80.30;;;;;;5052305;28;20063;-76
2021/11/06 12:24:52;;;;;;;45.28;9.75;;;12.80;80.70;;;;;;5051885;28;20102;-78
2021/11/06 12:27:32;;;;;;;87.47;11.15;;;12.80;81.00;;;;;;5070107;28;20501;-76
2021/11/06 12:29:58;;;;;;;80.85;12.48;;;12.80;81.50;;;;;;5052462;28;20551;-75
2021/11/06 12:32:30;;;;;;;51.90;10.18;;;12.90;81.90;;;;;;5070344;28;20072;-76
2021/11/06 12:35:11;;;;;;;51.30;9.75;;;12.90;82.10;;;;;;5070265;28;20528;-76
2021/11/06 12:37:40;;;;;;;43.85;9.70;;;12.90;82.50;;;;;;5052064;28;20363;-75
2021/11/06 12:40:15;;;;;;;35.58;7.68;;;12.90;82.90;;;;;;5052035;28;20493;-76
2021/11/06 12:42:41;;;;;;;171.70;17.08;;;12.90;83.10;;;;;;5052154;28;20025;-76
2021/11/06 12:45:13;;;;;;;165.70;16.20;;;12.90;83.30;;;;;;5051840;28;20029;-76
2021/11/06 12:48:04;;;;;;;155.02;15.18;;;12.90;83.40;;;;;;5069942;28;20052;-76
2021/11/06 12:50:30;;;;;;;184.27;18.08;;;12.90;84.00;;;;;;5036302;28;20063;-75
2021/11/06 12:52:55;;;;;;;287.92;24.50;;;13.00;84.70;;;;;;5051699;28;20056;-75